Time;durP1;ratioP1;P1;durP2;ratioP2;P2;SDS_P1;SDS_P2;PMS_P1;PMS_P2;Temp;Humidity;BMP_temperature;BMP_pressure;BME280_temperature;BME280_humidity;BME280_pressure;Samples;Min_cycle;Max_cycle;Signal;HPM_P1;HPM_P2
2023/08/28 00:00:51;;;;;;;0.80;0.73;;;17.50;99.90;;;17.84;71.76;100243.38;4967950;28;20694;-65
2023/08/28 00:03:18;;;;;;;0.83;0.83;;;17.50;99.90;;;17.80;71.55;100242.88;4970012;28;20654;-65
2023/08/28 00:05:45;;;;;;;0.73;0.73;;;17.50;99.90;;;17.76;71.95;100241.56;4969484;28;21216;-65
2023/08/28 00:08:12;;;;;;;0.53;0.53;;;17.40;99.90;;;17.76;71.62;100243.38;4969670;28;20735;-66
2023/08/28 00:10:40;;;;;;;0.67;0.67;;;17.40;99.90;;;17.72;71.67;100229.69;4970208;28;20693;-65
2023/08/28 00:13:07;;;;;;;0.70;0.70;;;17.40;99.90;;;17.69;72.06;100223.94;4970197;28;20665;-64
2023/08/28 00:15:34;;;;;;;1.47;0.60;;;17.40;99.90;;;17.69;72.25;100229.22;4963674;28;20651;-65
2023/08/28 00:18:01;;;;;;;0.70;0.70;;;17.30;99.90;;;17.68;71.82;100222.28;4968149;28;20639;-64
2023/08/28 00:20:28;;;;;;;0.83;0.83;;;17.40;99.90;;;17.61;71.93;100222.09;4967170;28;20713;-65
2023/08/28 00:22:56;;;;;;;0.60;0.60;;;17.30;99.90;;;17.59;72.30;100218.00;4968575;28;20730;-65
2023/08/28 00:25:23;;;;;;;0.80;0.80;;;17.30;99.90;;;17.55;72.41;100217.50;5010811;28;20722;-65
2023/08/28 00:27:49;;;;;;;0.80;0.80;;;17.20;99.90;;;17.54;72.92;100215.03;4969493;28;21264;-65
2023/08/28 00:30:17;;;;;;;0.63;0.63;;;17.20;99.90;;;17.50;73.34;100211.06;4964918;28;20750;-64
2023/08/28 00:32:44;;;;;;;0.80;0.80;;;17.10;99.90;;;17.49;73.41;100197.03;4968499;28;20685;-65
2023/08/28 00:35:11;;;;;;;0.67;0.67;;;17.20;99.90;;;17.50;73.02;100188.16;4968139;28;20756;-65
2023/08/28 00:37:38;;;;;;;0.50;0.50;;;17.20;99.90;;;17.52;73.49;100182.72;4969366;28;20649;-65
2023/08/28 00:40:07;;;;;;;0.73;0.73;;;17.20;99.90;;;17.48;73.10;100174.25;4969473;28;21080;-65
2023/08/28 00:42:34;;;;;;;0.60;0.60;;;17.20;99.90;;;17.43;72.55;100175.75;4965765;28;20659;-65
2023/08/28 00:45:01;;;;;;;0.50;0.50;;;17.10;99.90;;;17.41;72.43;100177.72;4968920;28;20730;-65
2023/08/28 00:47:28;;;;;;;0.63;0.63;;;17.10;99.90;;;17.35;72.69;100189.78;4966159;28;20726;-65
2023/08/28 00:49:55;;;;;;;0.83;0.83;;;17.00;99.90;;;17.30;73.32;100192.06;4968529;28;20631;-65
2023/08/28 00:52:22;;;;;;;1.13;0.80;;;17.00;99.90;;;17.25;73.47;100189.09;4966308;28;20769;-65
2023/08/28 00:54:49;;;;;;;0.90;0.60;;;16.90;99.90;;;17.22;73.65;100199.16;4968601;28;20623;-64
2023/08/28 00:57:18;;;;;;;0.50;0.50;;;16.90;99.90;;;17.21;73.78;100198.31;4966104;28;20674;-65
2023/08/28 00:59:45;;;;;;;0.93;0.80;;;16.90;99.90;;;17.20;73.62;100195.84;4968369;28;21022;-65
2023/08/28 01:02:12;;;;;;;0.60;0.60;;;16.90;99.90;;;17.18;73.28;100197.81;4963180;28;20701;-66
2023/08/28 01:04:39;;;;;;;0.60;0.60;;;16.90;99.90;;;17.14;72.97;100207.06;4958893;28;20751;-65
2023/08/28 01:07:22;;;;;;;0.70;0.70;;;16.80;99.90;;;17.09;73.13;100212.81;4968292;28;20658;-65
2023/08/28 01:10:36;;;;;;;0.70;0.70;;;16.80;99.90;;;17.06;74.51;100208.66;4966215;28;20670;-65
2023/08/28 01:13:27;;;;;;;0.60;0.60;;;16.80;99.90;;;17.12;74.33;100203.75;4942850;28;20776;-64
2023/08/28 01:15:55;;;;;;;0.87;0.77;;;16.80;99.90;;;17.13;74.46;100205.38;5022730;28;20656;-63
2023/08/28 01:18:22;;;;;;;0.90;0.73;;;16.80;99.90;;;17.14;74.75;100204.41;4971860;28;20643;-65
2023/08/28 01:20:50;;;;;;;0.53;0.53;;;16.80;99.90;;;17.13;74.34;100215.94;4965176;28;20676;-65
2023/08/28 01:23:40;;;;;;;0.73;0.73;;;16.80;99.90;;;17.14;73.85;100222.88;4967597;28;21306;-65
2023/08/28 01:26:07;;;;;;;1.13;0.80;;;16.80;99.90;;;17.13;73.58;100243.13;4964794;28;20642;-65
2023/08/28 01:28:34;;;;;;;1.17;1.17;;;16.80;99.90;;;17.13;73.79;100243.13;4967740;28;20632;-65
2023/08/28 01:31:04;;;;;;;1.47;0.90;;;16.80;99.90;;;17.13;73.79;100245.75;4963568;28;20735;-64
2023/08/28 01:33:33;;;;;;;0.70;0.70;;;16.80;99.90;;;17.12;74.37;100235.38;4967687;28;20635;-64
2023/08/28 01:36:13;;;;;;;1.20;1.10;;;16.80;99.90;;;17.10;74.23;100226.81;4962712;28;21220;-65
2023/08/28 01:39:15;;;;;;;0.90;0.70;;;16.80;99.90;;;17.08;74.48;100219.03;4958244;28;20646;-64
2023/08/28 01:41:47;;;;;;;0.70;0.70;;;16.70;99.90;;;17.05;73.94;100225.50;4953123;28;21244;-64
2023/08/28 01:44:17;;;;;;;0.80;0.70;;;16.70;99.90;;;17.01;73.95;100224.13;4963626;28;20647;-65
2023/08/28 01:46:44;;;;;;;0.50;0.50;;;16.70;99.90;;;16.99;73.62;100225.31;4964723;28;20639;-65
2023/08/28 01:49:11;;;;;;;0.43;0.43;;;16.70;99.90;;;16.92;73.31;100221.66;4964680;28;20632;-65
2023/08/28 01:51:38;;;;;;;0.50;0.50;;;16.60;99.90;;;16.88;73.13;100223.81;4965516;28;21138;-65
2023/08/28 01:54:05;;;;;;;0.60;0.60;;;16.60;99.90;;;16.85;73.23;100234.66;4966931;28;20636;-65
2023/08/28 01:56:32;;;;;;;0.50;0.50;;;16.60;99.90;;;16.77;73.70;100231.16;4963023;28;20643;-63
2023/08/28 01:59:02;;;;;;;0.57;0.57;;;16.50;99.90;;;16.74;74.37;100242.84;4966657;28;20663;-64
2023/08/28 02:01:29;;;;;;;1.00;1.00;;;16.50;99.90;;;16.71;74.68;100242.34;4962980;28;20774;-64
2023/08/28 02:03:56;;;;;;;0.77;0.70;;;16.40;99.90;;;16.70;74.67;100246.78;4967184;28;20654;-63
2023/08/28 02:06:24;;;;;;;0.70;0.57;;;16.40;99.90;;;16.70;74.35;100232.75;4966560;28;21067;-64
2023/08/28 02:08:51;;;;;;;0.60;0.60;;;16.40;99.90;;;16.69;73.83;100229.34;4968246;28;20638;-64
2023/08/28 02:11:19;;;;;;;0.60;0.60;;;16.40;99.90;;;16.69;73.46;100228.50;4963437;28;20666;-64
2023/08/28 02:13:46;;;;;;;0.60;0.60;;;16.40;99.90;;;16.68;73.39;100234.75;4961913;28;20730;-64
2023/08/28 02:16:12;;;;;;;0.57;0.57;;;16.40;99.90;;;16.68;73.23;100234.75;4966541;28;20634;-64
2023/08/28 02:18:39;;;;;;;0.60;0.60;;;16.40;99.90;;;16.66;73.62;100240.16;4958980;28;20644;-65
2023/08/28 02:21:07;;;;;;;0.83;0.80;;;16.40;99.90;;;16.70;74.22;100236.22;4967213;28;20762;-64
2023/08/28 02:23:34;;;;;;;0.70;0.70;;;16.40;99.90;;;16.74;73.82;100242.00;4966090;28;20738;-64
2023/08/28 02:26:01;;;;;;;1.73;0.80;;;16.40;99.90;;;16.72;74.27;100238.69;4965561;28;20680;-65
2023/08/28 02:28:28;;;;;;;0.80;0.80;;;16.40;99.90;;;16.71;74.29;100231.78;4964368;28;20779;-65
2023/08/28 02:30:58;;;;;;;0.60;0.60;;;16.40;99.90;;;16.67;74.16;100238.38;4959127;28;20675;-64
2023/08/28 02:33:26;;;;;;;0.80;0.80;;;16.40;99.90;;;16.65;74.41;100238.50;4962575;28;20952;-65
2023/08/28 02:35:53;;;;;;;0.60;0.60;;;16.40;99.90;;;16.65;75.02;100233.25;4965384;28;21096;-65
2023/08/28 02:38:20;;;;;;;0.80;0.70;;;16.40;99.90;;;16.62;75.53;100215.13;4964297;28;21173;-63
2023/08/28 02:40:47;;;;;;;0.63;0.63;;;16.40;99.90;;;16.54;76.28;100215.13;4967641;28;20664;-63
2023/08/28 02:43:14;;;;;;;0.60;0.60;;;16.30;99.90;;;16.53;76.68;100212.63;4963726;28;20643;-64
2023/08/28 02:45:41;;;;;;;0.80;0.80;;;16.20;99.90;;;16.55;76.84;100200.09;4966241;28;20689;-65
2023/08/28 02:48:09;;;;;;;0.70;0.70;;;16.30;99.90;;;16.55;76.19;100193.03;4960813;28;20682;-64
2023/08/28 02:50:36;;;;;;;0.50;0.50;;;16.20;99.90;;;16.57;76.03;100187.63;4969121;28;20650;-64
2023/08/28 02:53:04;;;;;;;0.60;0.60;;;16.30;99.90;;;16.59;75.44;100183.84;4969766;28;20643;-64
2023/08/28 02:55:41;;;;;;;0.70;0.70;;;16.30;99.90;;;16.59;74.87;100183.84;4963660;28;20743;-64
2023/08/28 02:58:09;;;;;;;0.50;0.50;;;16.30;99.90;;;16.55;74.47;100176.41;4952451;28;20623;-65
2023/08/28 03:00:41;;;;;;;0.80;0.80;;;16.30;99.90;;;16.51;75.23;100178.53;4963658;28;21045;-64
2023/08/28 03:03:09;;;;;;;1.03;0.80;;;16.20;99.90;;;16.53;75.24;100170.47;4967549;28;20662;-65
2023/08/28 03:05:36;;;;;;;2.40;1.00;;;16.20;99.90;;;16.53;74.83;100166.03;4965425;28;20654;-65
2023/08/28 03:08:03;;;;;;;0.70;0.70;;;16.20;99.90;;;16.56;74.79;100170.16;4968354;28;20659;-64
2023/08/28 03:10:34;;;;;;;0.67;0.67;;;16.20;99.90;;;16.53;75.03;100165.22;4961962;28;21078;-65
2023/08/28 03:13:02;;;;;;;0.80;0.80;;;16.20;99.90;;;16.54;75.85;100170.34;4958733;28;20728;-64
2023/08/28 03:15:31;;;;;;;1.07;0.90;;;16.20;99.90;;;16.53;75.97;100171.31;4969200;28;20619;-65
2023/08/28 03:17:59;;;;;;;0.70;0.70;;;16.20;99.90;;;16.52;76.36;100176.75;4966199;28;20742;-65
2023/08/28 03:20:26;;;;;;;0.67;0.67;;;16.20;99.90;;;16.55;76.50;100181.69;4968880;28;21751;-65
2023/08/28 03:22:55;;;;;;;0.63;0.63;;;16.20;99.90;;;16.55;76.44;100197.47;4967826;28;20737;-64
2023/08/28 03:25:24;;;;;;;0.60;0.60;;;16.20;99.90;;;16.54;76.96;100193.22;4969249;28;20637;-65
2023/08/28 03:27:51;;;;;;;0.80;0.80;;;16.20;99.90;;;16.55;77.03;100190.41;4967048;28;21261;-64
2023/08/28 03:30:18;;;;;;;0.70;0.67;;;16.20;99.90;;;16.55;76.61;100190.41;4969326;28;20669;-64
2023/08/28 03:32:45;;;;;;;0.60;0.60;;;16.20;99.90;;;16.57;76.20;100177.09;4965310;28;20824;-66
2023/08/28 03:35:15;;;;;;;0.80;0.80;;;16.20;99.90;;;16.60;76.60;100171.50;4968968;28;20639;-65
2023/08/28 03:37:43;;;;;;;0.83;0.80;;;16.30;99.90;;;16.62;76.31;100159.81;4963086;28;21148;-65
2023/08/28 03:40:11;;;;;;;0.83;0.83;;;16.30;99.90;;;16.64;76.33;100167.56;4969014;28;21195;-64
2023/08/28 03:42:38;;;;;;;0.70;0.70;;;16.30;99.90;;;16.64;76.09;100164.91;4966868;28;21129;-64
2023/08/28 03:45:05;;;;;;;0.67;0.67;;;16.30;99.90;;;16.68;75.44;100156.53;4968665;28;20681;-65
2023/08/28 03:47:32;;;;;;;0.60;0.60;;;16.40;99.90;;;16.70;75.00;100154.56;4957714;28;20700;-65
2023/08/28 03:49:59;;;;;;;0.63;0.63;;;16.40;99.90;;;16.72;75.52;100144.69;4965015;28;21382;-65
2023/08/28 03:52:27;;;;;;;0.67;0.67;;;16.40;99.90;;;16.74;75.19;100140.09;4967421;28;20768;-65
2023/08/28 03:54:54;;;;;;;1.17;0.93;;;16.50;99.90;;;16.77;75.74;100146.84;4963067;28;20724;-66
2023/08/28 03:57:21;;;;;;;0.80;0.80;;;16.40;99.90;;;16.78;75.61;100144.03;4969476;28;20702;-65
2023/08/28 03:59:48;;;;;;;0.80;0.80;;;16.50;99.90;;;16.81;75.85;100148.16;4967798;28;20807;-65
2023/08/28 04:02:15;;;;;;;0.70;0.70;;;16.50;99.90;;;16.84;75.28;100146.06;4966565;28;20765;-65
2023/08/28 04:04:42;;;;;;;1.00;1.00;;;16.50;99.90;;;16.83;75.58;100140.94;4966955;28;20729;-65
2023/08/28 04:07:23;;;;;;;1.03;1.00;;;16.50;99.90;;;16.83;75.37;100141.75;4968330;28;20623;-65
2023/08/28 04:09:52;;;;;;;0.73;0.73;;;16.50;99.90;;;16.79;75.39;100134.34;4964715;28;20650;-65
2023/08/28 04:12:19;;;;;;;1.27;0.90;;;16.50;99.90;;;16.79;75.52;100140.44;4968702;28;21023;-65
2023/08/28 04:14:49;;;;;;;0.60;0.60;;;16.50;99.90;;;16.75;75.86;100141.75;4965221;28;20774;-66
2023/08/28 04:17:16;;;;;;;0.90;0.70;;;16.40;99.90;;;16.75;75.82;100148.81;4967477;28;20659;-64
2023/08/28 04:19:43;;;;;;;0.80;0.80;;;16.40;99.90;;;16.74;76.33;100139.25;4967415;28;20670;-65
2023/08/28 04:22:10;;;;;;;0.60;0.60;;;16.40;99.90;;;16.72;76.35;100154.41;4968698;28;20771;-65
2023/08/28 04:24:37;;;;;;;1.00;0.70;;;16.40;99.90;;;16.72;76.36;100154.41;4966382;28;20643;-65
2023/08/28 04:27:04;;;;;;;0.60;0.60;;;16.40;99.90;;;16.71;76.73;100158.88;4968807;28;20684;-65
2023/08/28 04:29:31;;;;;;;1.73;0.73;;;16.40;99.90;;;16.70;75.90;100156.38;4966542;28;20663;-65
2023/08/28 04:31:58;;;;;;;0.83;0.83;;;16.40;99.90;;;16.67;76.24;100159.34;4968884;28;20688;-64
2023/08/28 04:34:25;;;;;;;0.70;0.70;;;16.40;99.90;;;16.66;76.32;100160.31;4966032;28;23579;-64
2023/08/28 04:36:52;;;;;;;0.80;0.80;;;16.40;99.90;;;16.63;76.63;100156.19;4969191;28;20730;-65
2023/08/28 04:39:20;;;;;;;0.70;0.70;;;16.30;99.90;;;16.61;77.24;100168.69;4966951;28;20730;-64
2023/08/28 04:41:46;;;;;;;0.87;0.87;;;16.30;99.90;;;16.64;77.15;100167.56;4968623;28;20687;-65
2023/08/28 04:44:13;;;;;;;0.70;0.70;;;16.30;99.90;;;16.66;76.43;100176.94;4964843;28;20742;-65
2023/08/28 04:46:40;;;;;;;0.63;0.63;;;16.30;99.90;;;16.67;76.11;100168.09;4967872;28;20635;-65
2023/08/28 04:49:07;;;;;;;0.83;0.83;;;16.40;99.90;;;16.67;76.19;100165.44;4966683;28;20678;-65
2023/08/28 04:51:34;;;;;;;0.77;0.77;;;16.40;99.90;;;16.68;76.89;100168.88;4970175;28;20694;-65
2023/08/28 04:54:01;;;;;;;0.70;0.70;;;16.40;99.90;;;16.69;76.45;100170.53;4967141;28;21444;-65
2023/08/28 04:56:28;;;;;;;0.80;0.80;;;16.40;99.90;;;16.68;76.55;100164.44;4963839;28;20686;-65
2023/08/28 04:58:55;;;;;;;0.70;0.70;;;16.40;99.90;;;16.71;76.87;100165.94;4968749;28;20642;-65
2023/08/28 05:01:22;;;;;;;0.90;0.90;;;16.40;99.90;;;16.73;77.18;100162.16;4964653;28;20718;-65
2023/08/28 05:03:49;;;;;;;0.80;0.80;;;16.40;99.90;;;16.74;77.02;100155.91;4982951;28;20659;-65
2023/08/28 05:06:19;;;;;;;0.90;0.90;;;16.40;99.90;;;16.76;77.19;100156.56;4965226;28;20640;-64
2023/08/28 05:08:46;;;;;;;0.80;0.80;;;16.50;99.90;;;16.79;77.08;100156.25;4968525;28;21220;-64
2023/08/28 05:11:13;;;;;;;0.90;0.90;;;16.50;99.90;;;16.80;77.32;100149.97;4965842;28;20758;-64
2023/08/28 05:13:39;;;;;;;0.60;0.60;;;16.40;99.90;;;16.84;77.11;100156.59;4967089;28;20635;-65
2023/08/28 05:16:06;;;;;;;1.17;0.97;;;16.50;99.90;;;16.86;76.81;100156.44;4967417;28;21269;-65
2023/08/28 05:18:33;;;;;;;0.87;0.87;;;16.50;99.90;;;16.88;76.97;100152.66;4965258;28;20650;-65
2023/08/28 05:21:01;;;;;;;0.87;0.87;;;16.50;99.90;;;16.91;76.70;100157.56;4967999;28;20659;-64
2023/08/28 05:23:28;;;;;;;1.63;0.80;;;16.50;99.90;;;16.91;76.67;100154.94;4965626;28;20675;-64
2023/08/28 05:25:55;;;;;;;0.70;0.70;;;16.60;99.90;;;16.91;76.62;100151.47;4967650;28;20722;-65
2023/08/28 05:28:22;;;;;;;2.93;0.70;;;16.60;99.90;;;16.91;76.65;100160.22;4965602;28;21392;-65
2023/08/28 05:30:50;;;;;;;1.53;0.90;;;16.60;99.90;;;16.90;76.63;100174.41;4968251;28;20673;-64
2023/08/28 05:33:17;;;;;;;0.60;0.60;;;16.60;99.90;;;16.88;76.57;100165.81;4963664;28;20731;-64
2023/08/28 05:35:44;;;;;;;0.50;0.50;;;16.60;99.90;;;16.88;77.22;100165.00;4967976;28;20677;-65
2023/08/28 05:38:11;;;;;;;0.80;0.80;;;16.60;99.90;;;16.88;77.53;100167.63;4964596;28;20643;-65
2023/08/28 05:40:38;;;;;;;0.80;0.80;;;16.60;99.90;;;16.90;77.28;100168.28;4968225;28;20634;-65
2023/08/28 05:43:06;;;;;;;0.60;0.60;;;16.60;99.90;;;16.91;76.83;100165.47;4965186;28;20778;-64
2023/08/28 05:45:33;;;;;;;0.60;0.60;;;16.60;99.90;;;16.95;76.81;100174.72;4964615;28;21268;-65
2023/08/28 05:48:00;;;;;;;0.93;0.93;;;16.60;99.90;;;17.01;76.50;100173.25;4963762;28;20747;-65
2023/08/28 05:50:27;;;;;;;0.60;0.60;;;16.70;99.90;;;17.06;76.55;100174.41;4967426;28;20647;-65
2023/08/28 05:52:54;;;;;;;0.90;0.90;;;16.70;99.90;;;17.13;76.50;100173.75;4966759;28;20661;-66
2023/08/28 05:55:21;;;;;;;0.70;0.70;;;16.80;99.90;;;17.17;76.13;100169.78;4962412;28;20742;-64
2023/08/28 05:57:48;;;;;;;0.87;0.87;;;16.80;99.90;;;17.22;75.95;100167.50;4967185;28;20704;-65
2023/08/28 06:00:16;;;;;;;0.87;0.87;;;16.90;99.90;;;17.16;75.93;100178.72;4965158;28;20650;-65
2023/08/28 06:02:43;;;;;;;0.83;0.83;;;16.90;99.90;;;17.10;76.00;100177.53;4965894;28;20686;-65
2023/08/28 06:05:11;;;;;;;0.87;0.77;;;16.80;99.90;;;17.05;76.35;100183.31;4965976;28;20639;-65
2023/08/28 06:07:37;;;;;;;0.83;0.83;;;16.80;99.90;;;17.00;76.70;100190.88;4962749;28;20667;-65
2023/08/28 06:10:06;;;;;;;0.70;0.70;;;16.70;99.90;;;16.96;76.94;100184.28;4966896;28;20623;-65
2023/08/28 06:12:33;;;;;;;0.80;0.80;;;16.60;99.90;;;16.91;76.97;100176.03;4963883;28;20786;-64
2023/08/28 06:14:59;;;;;;;0.63;0.63;;;16.70;99.90;;;16.93;77.44;100184.59;4967434;28;20635;-65
2023/08/28 06:17:27;;;;;;;0.80;0.80;;;16.60;99.90;;;16.93;77.42;100186.41;4963025;28;20705;-65
2023/08/28 06:19:54;;;;;;;0.80;0.80;;;16.70;99.90;;;16.91;76.87;100189.19;4967223;28;20666;-65
2023/08/28 06:22:21;;;;;;;0.90;0.90;;;16.60;99.90;;;16.89;77.51;100185.91;4963361;28;21119;-65
2023/08/28 06:24:52;;;;;;;0.77;0.77;;;16.60;99.90;;;16.88;77.72;100183.44;4966278;28;20663;-65
2023/08/28 06:27:19;;;;;;;0.97;0.97;;;16.60;99.90;;;16.86;77.74;100180.97;4964384;28;20745;-65
2023/08/28 06:29:46;;;;;;;1.07;1.07;;;16.60;99.90;;;16.82;78.07;100178.81;4967288;28;21018;-64
2023/08/28 06:32:13;;;;;;;0.80;0.80;;;16.60;99.90;;;16.78;78.19;100180.94;4965361;28;20654;-64
2023/08/28 06:34:40;;;;;;;0.60;0.60;;;16.50;99.90;;;16.77;78.41;100181.94;4965640;28;21311;-65
2023/08/28 06:37:07;;;;;;;0.80;0.80;;;16.50;99.90;;;16.76;78.83;100182.91;4966234;28;20663;-65
2023/08/28 06:39:34;;;;;;;0.80;0.80;;;16.50;99.90;;;16.79;78.50;100185.22;4963042;28;21257;-65
2023/08/28 06:42:00;;;;;;;1.10;1.10;;;16.50;99.90;;;16.82;78.74;100171.72;4966165;28;20703;-64
2023/08/28 06:44:27;;;;;;;0.90;0.90;;;16.50;99.90;;;16.90;78.65;100179.66;4980818;28;22395;-65
2023/08/28 06:46:54;;;;;;;1.07;1.07;;;16.60;99.90;;;16.92;77.91;100177.69;4966381;28;20692;-65
2023/08/28 06:49:21;;;;;;;1.27;1.10;;;16.60;99.90;;;16.96;78.02;100171.09;4943984;28;21276;-64
2023/08/28 06:51:48;;;;;;;0.70;0.70;;;16.60;99.90;;;17.00;78.04;100169.78;4966646;28;20744;-65
2023/08/28 06:54:15;;;;;;;1.40;0.93;;;16.70;99.90;;;17.05;77.77;100169.31;4977359;28;20642;-64
2023/08/28 06:56:42;;;;;;;0.90;0.90;;;16.70;99.90;;;17.08;77.30;100168.97;4964920;28;20671;-65
2023/08/28 06:59:09;;;;;;;1.20;1.17;;;16.80;99.90;;;17.12;77.03;100162.41;4966356;28;20667;-64
2023/08/28 07:01:36;;;;;;;0.90;0.90;;;16.80;99.90;;;17.10;76.71;100150.38;4962950;28;20760;-64
2023/08/28 07:04:04;;;;;;;0.80;0.70;;;16.80;99.90;;;17.03;76.92;100137.84;4965939;28;20689;-65
2023/08/28 07:06:31;;;;;;;0.87;0.87;;;16.70;99.90;;;17.03;77.34;100137.03;4964048;28;21227;-65
2023/08/28 07:08:59;;;;;;;1.00;1.00;;;16.70;99.90;;;17.04;77.61;100128.94;4966400;28;20738;-64
2023/08/28 07:11:26;;;;;;;0.90;0.90;;;16.70;99.90;;;17.08;77.70;100121.53;4964445;28;20666;-65
2023/08/28 07:13:54;;;;;;;0.80;0.80;;;16.80;99.90;;;17.16;77.92;100126.81;4967159;28;20635;-65
2023/08/28 07:16:21;;;;;;;1.20;1.10;;;16.80;99.90;;;17.25;77.65;100117.09;4963367;28;20650;-65
2023/08/28 07:18:48;;;;;;;1.27;1.27;;;16.90;99.90;;;17.30;77.41;100118.25;4965126;28;20638;-64
2023/08/28 07:21:15;;;;;;;1.07;0.97;;;17.00;99.90;;;17.35;77.01;100120.38;4966296;28;20659;-65
2023/08/28 07:23:43;;;;;;;0.67;0.67;;;17.00;99.90;;;17.42;77.12;100126.66;4963911;28;20678;-65
2023/08/28 07:26:13;;;;;;;0.77;0.77;;;17.10;99.90;;;17.46;76.53;100139.31;4966133;28;20661;-65
2023/08/28 07:28:40;;;;;;;1.30;1.20;;;17.10;99.90;;;17.52;76.64;100133.44;4964805;28;20650;-65
2023/08/28 07:31:07;;;;;;;1.20;1.10;;;17.20;99.90;;;17.59;76.51;100128.31;4966489;28;20632;-65
2023/08/28 07:33:34;;;;;;;1.20;1.10;;;17.20;99.90;;;17.65;75.95;100125.81;4964454;28;20666;-65
2023/08/28 07:36:00;;;;;;;1.07;1.07;;;17.30;99.90;;;17.73;75.68;100124.97;4969520;28;20743;-64
2023/08/28 07:38:27;;;;;;;1.20;1.10;;;17.40;99.90;;;17.81;75.91;100123.16;4967251;28;20639;-66
2023/08/28 07:40:55;;;;;;;1.30;1.20;;;17.50;99.90;;;17.92;74.86;100119.31;4969478;28;20631;-65
2023/08/28 07:43:22;;;;;;;1.10;1.10;;;17.60;99.90;;;18.04;74.30;100111.88;4965650;28;20667;-66
2023/08/28 07:45:49;;;;;;;1.07;1.07;;;17.70;99.90;;;18.11;74.09;100104.91;4965779;28;20680;-65
2023/08/28 07:48:16;;;;;;;1.03;1.03;;;17.80;99.90;;;18.18;73.64;100109.34;4966761;28;20646;-66
2023/08/28 07:50:45;;;;;;;1.10;1.10;;;17.80;99.90;;;18.26;73.48;100111.94;4963399;28;20658;-65
2023/08/28 07:53:14;;;;;;;1.10;1.10;;;17.90;99.90;;;18.31;73.13;100112.25;4965920;28;20750;-66
2023/08/28 07:55:41;;;;;;;1.77;1.20;;;18.00;99.90;;;18.36;73.37;100123.09;4966342;28;20651;-65
2023/08/28 07:58:09;;;;;;;1.27;1.17;;;18.00;99.90;;;18.39;73.11;100135.16;4967164;28;20718;-65
2023/08/28 08:00:45;;;;;;;1.83;0.83;;;18.00;99.90;;;18.37;72.68;100143.25;4966314;28;20753;-66
2023/08/28 08:03:13;;;;;;;0.77;0.77;;;18.10;99.90;;;18.30;73.13;100142.28;4961598;28;21351;-65
2023/08/28 08:05:41;;;;;;;0.80;0.80;;;18.00;99.90;;;18.26;73.06;100140.16;4971217;28;20630;-66
2023/08/28 08:08:11;;;;;;;1.67;1.20;;;17.90;99.90;;;18.20;73.31;100139.03;4966225;28;20634;-66
2023/08/28 08:10:38;;;;;;;1.23;1.20;;;17.90;99.90;;;18.25;73.59;100139.31;4966889;28;21188;-65
2023/08/28 08:13:05;;;;;;;1.40;1.30;;;17.90;99.90;;;18.34;73.22;100130.38;4966731;28;20662;-65
2023/08/28 08:15:32;;;;;;;0.80;0.80;;;18.00;99.90;;;18.42;73.00;100132.19;4968531;28;21026;-66
2023/08/28 08:17:59;;;;;;;0.90;0.90;;;18.00;99.90;;;18.49;72.30;100143.72;4962964;28;21021;-65
2023/08/28 08:20:26;;;;;;;1.77;0.83;;;18.10;99.90;;;18.54;72.09;100142.22;4965643;28;20704;-65
2023/08/28 08:22:53;;;;;;;0.90;0.90;;;18.20;99.90;;;18.59;71.67;100137.22;4964411;28;20683;-65
2023/08/28 08:25:22;;;;;;;0.67;0.67;;;18.20;99.90;;;18.65;71.14;100121.69;4967682;28;20975;-67
2023/08/28 08:27:49;;;;;;;0.83;0.83;;;18.30;99.90;;;18.68;71.02;100116.84;4967184;28;20643;-65
2023/08/28 08:30:16;;;;;;;0.97;0.97;;;18.30;99.90;;;18.71;70.92;100134.19;4968827;28;20640;-64
2023/08/28 08:32:43;;;;;;;0.60;0.60;;;18.40;99.90;;;18.72;71.20;100149.06;4961491;28;21348;-64
2023/08/28 08:35:12;;;;;;;0.70;0.70;;;18.30;99.90;;;18.61;71.93;100152.91;4968788;28;20641;-64
2023/08/28 08:37:41;;;;;;;0.77;0.77;;;18.30;99.90;;;18.53;72.74;100158.22;4965892;28;20657;-64
2023/08/28 08:40:13;;;;;;;0.87;0.87;;;18.20;99.90;;;18.49;73.35;100155.13;4966853;28;20747;-64
2023/08/28 08:42:40;;;;;;;1.30;1.30;;;18.20;99.90;;;18.49;73.21;100159.56;4965464;28;20675;-64
2023/08/28 08:45:09;;;;;;;1.17;1.17;;;18.20;99.90;;;18.52;73.22;100165.34;4967484;28;20647;-65
2023/08/28 08:47:40;;;;;;;1.57;1.47;;;18.20;99.90;;;18.57;73.36;100160.34;4965233;28;20655;-64
2023/08/28 08:50:09;;;;;;;1.00;1.00;;;18.20;99.90;;;18.63;73.65;100158.84;4959915;28;20641;-64
2023/08/28 08:52:40;;;;;;;4.40;1.10;;;18.30;99.90;;;18.67;73.33;100160.16;4960584;28;21020;-65
2023/08/28 08:55:24;;;;;;;1.60;1.50;;;18.30;99.90;;;18.66;73.45;100165.59;4967588;28;21231;-65
2023/08/28 08:57:55;;;;;;;1.20;0.93;;;18.30;99.90;;;18.65;73.53;100166.59;4965637;28;20687;-64
2023/08/28 09:00:22;;;;;;;1.20;1.10;;;18.30;99.90;;;18.56;73.93;100165.81;4966565;28;20639;-65
2023/08/28 09:02:52;;;;;;;2.00;0.60;;;18.20;99.90;;;18.53;73.87;100171.44;4965650;28;20782;-65
2023/08/28 09:05:20;;;;;;;1.00;1.00;;;18.20;99.90;;;18.50;74.52;100172.63;5049761;28;20638;-65
2023/08/28 09:07:48;;;;;;;1.00;1.00;;;18.20;99.90;;;18.53;74.46;100179.34;4966163;28;20626;-65
2023/08/28 09:10:15;;;;;;;1.17;1.17;;;18.10;99.90;;;18.53;73.70;100188.13;4966589;28;20644;-65
2023/08/28 09:12:43;;;;;;;1.20;1.20;;;18.20;99.90;;;18.56;73.53;100187.78;4967327;28;20663;-64
2023/08/28 09:15:14;;;;;;;1.13;1.07;;;18.20;99.90;;;18.62;73.07;100185.44;4967953;28;20653;-65
2023/08/28 09:17:41;;;;;;;0.90;0.90;;;18.20;99.90;;;18.70;73.06;100186.22;4962984;28;20654;-66
2023/08/28 09:20:17;;;;;;;1.23;1.13;;;18.30;99.90;;;18.79;72.98;100198.41;4964616;28;20746;-65
2023/08/28 09:22:50;;;;;;;1.17;1.17;;;18.40;99.90;;;18.81;72.90;100191.13;4965606;28;20678;-66
2023/08/28 09:25:29;;;;;;;0.90;0.90;;;18.50;99.90;;;18.88;72.80;100193.91;4964394;28;20642;-66
2023/08/28 09:27:57;;;;;;;1.20;1.20;;;18.50;99.90;;;18.87;72.91;100197.56;4963682;28;20627;-66
2023/08/28 09:30:36;;;;;;;1.13;1.10;;;18.50;99.90;;;18.90;73.02;100191.91;4966556;28;20726;-65
2023/08/28 09:33:06;;;;;;;5.03;1.00;;;18.50;99.90;;;18.95;72.79;100194.84;4964522;28;20666;-66
2023/08/28 09:35:43;;;;;;;1.10;1.10;;;18.60;99.90;;;18.88;73.21;100205.28;4960437;28;20638;-66
2023/08/28 09:38:10;;;;;;;1.00;1.00;;;18.50;99.90;;;18.88;73.47;100207.94;4965478;28;20646;-66
2023/08/28 09:40:41;;;;;;;1.37;1.33;;;18.50;99.90;;;18.90;73.25;100202.47;4966405;28;20653;-67
2023/08/28 09:43:16;;;;;;;1.37;1.27;;;18.50;99.90;;;18.91;73.55;100201.50;4967394;28;20720;-67
2023/08/28 09:45:45;;;;;;;1.57;1.37;;;18.50;99.90;;;19.00;74.05;100205.72;4964732;28;21234;-66
2023/08/28 09:48:13;;;;;;;1.00;1.00;;;18.60;99.90;;;19.07;73.07;100206.66;4956092;28;20643;-67
2023/08/28 09:50:44;;;;;;;1.23;1.13;;;18.70;99.90;;;19.16;73.22;100211.75;4964732;28;20673;-66
2023/08/28 09:53:16;;;;;;;1.63;1.03;;;18.70;99.90;;;19.24;72.74;100213.50;4966572;28;20651;-67
2023/08/28 09:55:50;;;;;;;1.17;1.17;;;18.80;99.90;;;19.37;71.97;100216.41;4966704;28;20647;-68
2023/08/28 09:58:18;;;;;;;1.63;1.53;;;18.90;99.90;;;19.50;71.33;100213.19;4965942;28;21206;-66
2023/08/28 10:00:46;;;;;;;1.20;1.20;;;19.10;99.90;;;19.49;70.98;100201.75;4961714;28;20655;-67
2023/08/28 10:03:14;;;;;;;1.60;1.50;;;19.10;99.90;;;19.57;71.78;100206.97;4964587;28;21305;-67
2023/08/28 10:05:44;;;;;;;1.20;1.20;;;19.20;99.90;;;19.67;71.29;100202.28;4967087;28;20717;-65
2023/08/28 10:08:14;;;;;;;1.63;1.53;;;19.30;99.90;;;19.76;71.33;100198.53;4964936;28;20650;-64
2023/08/28 10:10:47;;;;;;;2.87;1.27;;;19.40;99.90;;;19.75;70.78;100194.25;4966757;28;20730;-65
2023/08/28 10:13:21;;;;;;;1.63;1.53;;;19.40;99.90;;;19.76;70.83;100192.44;4961731;28;20659;-67
2023/08/28 10:16:11;;;;;;;2.20;1.83;;;19.40;99.90;;;19.81;70.71;100180.31;4966431;28;20737;-67
2023/08/28 10:18:41;;;;;;;0.80;0.80;;;19.40;99.90;;;19.91;70.22;100183.50;4962848;28;20741;-67